WXM80 ListenWXM80 Stop

You find our weather info also at:

UK Metoffice

WeatherCloud

Weather Underground

Northeastern Weather Network

AWEKAS

Citizen Weather Observer Program (CWOP)

HAMweather, WeatherForYou, PWS Weather


Weather Underground History page Text

Daily Summary for January 27, 2018 Units:  English    Metric   Both
« Previous Day
Next Day »
Daily Weekly Monthly Yearly Custom
  High: Low: Average:
Temperature: TemperatureF °F 26.0 °F 42.3 °F
Dew Point: DewpointF °F 22.4 °F 34.9 °F
Humidity: Humidity % 46 % 77 %
Wind Speed: WindSpeedMPH mph 0.0 mph 3.9 mph
Wind Gust: WindSpeedGustMPH mph - -
Wind:- - SSW
Pressure: PressureIn in 29.97 in -
Precipitation: 0.00 in    
Historical Graphs
 
 
Tabular Data for January 27, 2018
Time Temperature Dew Point Pressure Wind Wind Speed Wind Gust Humidity Rainfall Rate (Hourly)
TemperatureF °F DewpointF °F PressureIn in Calm     Humidity % HourlyPrecipIn in
00:03 28.7 °F 23.9 °F 30.36 in SSW 1.3 mph 3.0 mph 82 % 0.00 in
00:08 28.7 °F 23.9 °F 30.36 in SSW 0.5 mph 3.5 mph 82 % 0.00 in
00:13 28.8 °F 24.6 °F 30.35 in SSW 0.4 mph 3.5 mph 84 % 0.00 in
00:19 28.8 °F 24.6 °F 30.36 in SW 1.2 mph 3.5 mph 84 % 0.00 in
00:24 28.9 °F 25.0 °F 30.35 in South 0.2 mph 2.3 mph 85 % 0.00 in
00:29 28.9 °F 25.0 °F 30.35 in SSW 1.7 mph 3.5 mph 85 % 0.00 in
00:34 29.0 °F 25.1 °F 30.35 in Calm   2.3 mph 85 % 0.00 in
00:39 29.1 °F 25.4 °F 30.35 in Calm   1.2 mph 86 % 0.00 in
00:44 29.1 °F 25.4 °F 30.35 in Calm     86 % 0.00 in
00:49 29.1 °F 25.2 °F 30.34 in Calm     85 % 0.00 in
00:54 29.0 °F 25.1 °F 30.34 in Calm     85 % 0.00 in
00:59 28.9 °F 24.7 °F 30.34 in Calm     84 % 0.00 in
01:04 28.8 °F 24.6 °F 30.34 in Calm     84 % 0.00 in
01:09 28.6 °F 24.4 °F 30.34 in Calm     84 % 0.00 in
01:14 28.5 °F 24.3 °F 30.34 in Calm     84 % 0.00 in
01:19 28.4 °F 24.2 °F 30.34 in Calm     84 % 0.00 in
01:24 28.2 °F 24.0 °F 30.34 in Calm     84 % 0.00 in
01:29 28.1 °F 23.9 °F 30.34 in Calm     84 % 0.00 in
01:34 27.9 °F 23.4 °F 30.34 in Calm     83 % 0.00 in
01:39 27.8 °F 23.3 °F 30.34 in Calm     83 % 0.00 in
01:44 27.6 °F 23.4 °F 30.34 in Calm     84 % 0.00 in
01:50 27.5 °F 23.0 °F 30.34 in Calm     83 % 0.00 in
01:55 27.4 °F 23.2 °F 30.33 in Calm   1.2 mph 84 % 0.00 in
02:00 27.2 °F 22.7 °F 30.33 in Calm     83 % 0.00 in
02:05 27.1 °F 22.6 °F 30.33 in Calm     83 % 0.00 in
02:10 26.9 °F 22.4 °F 30.33 in Calm     83 % 0.00 in
02:15 26.8 °F 22.6 °F 30.33 in Calm     84 % 0.00 in
02:20 26.8 °F 22.6 °F 30.34 in Calm     84 % 0.00 in
02:25 26.7 °F 22.8 °F 30.33 in Calm     85 % 0.00 in
02:30 26.6 °F 22.7 °F 30.33 in Calm     85 % 0.00 in
02:35 26.5 °F 22.6 °F 30.32 in Calm     85 % 0.00 in
02:40 26.5 °F 22.9 °F 30.32 in Calm     86 % 0.00 in
02:45 26.4 °F 22.8 °F 30.32 in Calm     86 % 0.00 in
02:50 26.3 °F 22.7 °F 30.32 in Calm     86 % 0.00 in
02:55 26.3 °F 23.0 °F 30.32 in Calm     87 % 0.00 in
03:00 26.3 °F 23.0 °F 30.31 in Calm     87 % 0.00 in
03:05 26.3 °F 23.2 °F 30.31 in Calm     88 % 0.00 in
03:10 26.2 °F 22.9 °F 30.30 in Calm     87 % 0.00 in
03:15 26.1 °F 23.0 °F 30.30 in Calm     88 % 0.00 in
03:21 26.1 °F 23.0 °F 30.30 in Calm     88 % 0.00 in
03:26 26.0 °F 22.9 °F 30.30 in Calm     88 % 0.00 in
03:31 26.0 °F 22.9 °F 30.29 in Calm     88 % 0.00 in
03:36 26.1 °F 23.3 °F 30.29 in Calm     89 % 0.00 in
03:41 26.3 °F 23.8 °F 30.29 in Calm     90 % 0.00 in
03:46 26.5 °F 24.2 °F 30.29 in Calm     91 % 0.00 in
03:51 26.5 °F 24.2 °F 30.29 in Calm     91 % 0.00 in
03:56 26.6 °F 24.3 °F 30.29 in Calm     91 % 0.00 in
04:01 26.7 °F 24.4 °F 30.29 in Calm     91 % 0.00 in
04:06 26.8 °F 24.5 °F 30.29 in Calm     91 % 0.00 in
04:11 26.9 °F 24.9 °F 30.29 in Calm     92 % 0.00 in
04:16 26.9 °F 24.9 °F 30.29 in Calm     92 % 0.00 in
04:21 27.0 °F 25.0 °F 30.29 in Calm     92 % 0.00 in
04:26 27.1 °F 25.1 °F 30.28 in Calm     92 % 0.00 in
04:31 27.2 °F 25.2 °F 30.28 in Calm     92 % 0.00 in
04:36 27.2 °F 25.2 °F 30.28 in Calm     92 % 0.00 in
04:41 27.2 °F 25.2 °F 30.28 in Calm     92 % 0.00 in
04:46 27.2 °F 25.2 °F 30.27 in Calm     92 % 0.00 in
04:52 27.2 °F 25.2 °F 30.28 in Calm     92 % 0.00 in
04:57 27.4 °F 25.4 °F 30.28 in WNW 0.6 mph 3.5 mph 92 % 0.00 in
05:02 27.4 °F 25.4 °F 30.28 in Calm   1.2 mph 92 % 0.00 in
05:07 27.7 °F 25.9 °F 30.28 in Calm   1.2 mph 93 % 0.00 in
05:12 27.8 °F 26.0 °F 30.28 in Calm   1.2 mph 93 % 0.00 in
05:17 27.9 °F 26.1 °F 30.27 in Calm     93 % 0.00 in
05:22 28.0 °F 26.2 °F 30.27 in West 0.1 mph 1.0 mph 93 % 0.00 in
05:27 28.4 °F 26.9 °F 30.27 in WSW 1.7 mph 3.5 mph 94 % 0.00 in
05:32 28.7 °F 27.2 °F 30.27 in Calm     94 % 0.00 in
05:37 29.0 °F 27.5 °F 30.27 in Calm     94 % 0.00 in
05:42 29.1 °F 27.6 °F 30.27 in Calm     94 % 0.00 in
05:44 29.2 °F 27.7 °F 30.27 in Calm     94 % 0.00 in
05:49 29.4 °F 27.9 °F 30.27 in Calm     94 % 0.00 in
05:54 29.8 °F 28.5 °F 30.26 in WSW 0.2 mph 1.2 mph 95 % 0.00 in
05:59 30.2 °F 28.9 °F 30.27 in WSW 0.4 mph 1.2 mph 95 % 0.00 in
06:04 30.3 °F 29.0 °F 30.26 in Calm   1.2 mph 95 % 0.00 in
06:09 30.3 °F 29.0 °F 30.26 in SW 0.3 mph 1.2 mph 95 % 0.00 in
06:14 30.4 °F 29.1 °F 30.26 in SW 0.8 mph 2.0 mph 95 % 0.00 in
06:19 30.5 °F 29.2 °F 30.25 in SSW 0.2 mph 2.3 mph 95 % 0.00 in
06:24 30.6 °F 29.3 °F 30.25 in SSW 3.4 mph 5.8 mph 95 % 0.00 in
06:29 31.0 °F 29.7 °F 30.25 in SW 4.9 mph 5.8 mph 95 % 0.00 in
06:34 31.6 °F 30.6 °F 30.25 in SW 3.4 mph 4.0 mph 96 % 0.00 in
06:40 32.1 °F 31.1 °F 30.25 in SW 4.9 mph 5.8 mph 96 % 0.00 in
06:44 32.8 °F 31.8 °F 30.26 in WSW 4.0 mph 10.4 mph 96 % 0.00 in
06:50 33.4 °F 32.4 °F 30.26 in SW 3.1 mph 9.2 mph 96 % 0.00 in
06:55 33.9 °F 32.9 °F 30.26 in WSW 3.6 mph 10.4 mph 96 % 0.00 in
07:00 34.2 °F 33.2 °F 30.26 in WSW 3.1 mph 6.9 mph 96 % 0.00 in
07:05 34.4 °F 33.4 °F 30.26 in WSW 1.0 mph 6.9 mph 96 % 0.00 in
07:10 34.6 °F 33.6 °F 30.26 in SW 3.5 mph 6.0 mph 96 % 0.00 in
07:15 34.8 °F 33.8 °F 30.26 in SSW 2.2 mph 6.9 mph 96 % 0.00 in
07:20 34.9 °F 33.9 °F 30.26 in WSW 2.3 mph 3.5 mph 96 % 0.00 in
07:25 35.0 °F 34.0 °F 30.26 in SSW 2.4 mph 7.0 mph 96 % 0.00 in
07:30 35.2 °F 34.2 °F 30.26 in SW 2.4 mph 5.8 mph 96 % 0.00 in
07:35 35.3 °F 34.3 °F 30.26 in SSW 2.5 mph 5.8 mph 96 % 0.00 in
07:40 35.4 °F 34.4 °F 30.26 in SW 2.0 mph 3.5 mph 96 % 0.00 in
07:45 35.5 °F 34.5 °F 30.26 in WSW 0.8 mph 3.5 mph 96 % 0.00 in
07:50 35.6 °F 34.6 °F 30.26 in WSW 4.2 mph 5.8 mph 96 % 0.00 in
07:55 35.7 °F 34.7 °F 30.25 in WSW 3.3 mph 5.8 mph 96 % 0.00 in
08:00 35.8 °F 34.8 °F 30.25 in SW 3.2 mph 4.0 mph 96 % 0.00 in
08:05 36.1 °F 35.1 °F 30.25 in WSW 0.9 mph 4.6 mph 96 % 0.00 in
08:10 36.4 °F 35.4 °F 30.25 in SW 4.1 mph 9.2 mph 96 % 0.00 in
08:15 36.7 °F 35.7 °F 30.25 in SSW 3.3 mph 7.0 mph 96 % 0.00 in
08:21 37.0 °F 36.0 °F 30.25 in SW 3.3 mph 9.0 mph 96 % 0.00 in
08:26 37.3 °F 36.3 °F 30.25 in SW 3.0 mph 9.0 mph 96 % 0.00 in
08:31 37.5 °F 36.5 °F 30.25 in SW 5.0 mph 9.0 mph 96 % 0.00 in
08:36 37.8 °F 36.8 °F 30.25 in SW 1.0 mph 7.0 mph 96 % 0.00 in
08:41 38.1 °F 37.1 °F 30.25 in SW 3.0 mph 8.0 mph 96 % 0.00 in
08:46 38.6 °F 37.3 °F 30.25 in WSW 6.7 mph 9.0 mph 95 % 0.00 in
08:51 39.0 °F 37.2 °F 30.24 in SW 5.0 mph 9.0 mph 93 % 0.00 in
08:56 39.5 °F 37.4 °F 30.24 in SW 5.0 mph 12.0 mph 92 % 0.00 in
09:01 40.2 °F 37.2 °F 30.24 in WSW 8.1 mph 10.0 mph 89 % 0.00 in
09:06 40.9 °F 37.3 °F 30.24 in SW 2.0 mph 12.0 mph 87 % 0.00 in
09:11 41.5 °F 37.0 °F 30.24 in SW 7.0 mph 12.0 mph 84 % 0.00 in
09:16 42.1 °F 36.4 °F 30.24 in SW 9.2 mph 12.7 mph 80 % 0.00 in
09:21 42.7 °F 36.3 °F 30.24 in SW 4.5 mph 15.0 mph 78 % 0.00 in
09:26 43.2 °F 35.8 °F 30.24 in SW 4.4 mph 10.4 mph 75 % 0.00 in
09:31 43.8 °F 35.7 °F 30.24 in SSW 7.9 mph 15.0 mph 73 % 0.00 in
09:36 44.4 °F 35.6 °F 30.23 in SSW 7.4 mph 15.0 mph 71 % 0.00 in
09:41 44.8 °F 34.9 °F 30.24 in SSW 8.4 mph 15.0 mph 68 % 0.00 in
09:46 45.3 °F 35.0 °F 30.23 in WSW 8.2 mph 11.0 mph 67 % 0.00 in
09:51 45.8 °F 34.3 °F 30.24 in SSW 6.7 mph 19.6 mph 64 % 0.00 in
09:56 46.3 °F 34.4 °F 30.23 in SSW 8.0 mph 20.7 mph 63 % 0.00 in
10:01 46.8 °F 34.5 °F 30.23 in SW 8.3 mph 12.7 mph 62 % 0.00 in
10:06 47.3 °F 34.5 °F 30.23 in SW 4.6 mph 11.5 mph 61 % 0.00 in
10:11 47.8 °F 33.7 °F 30.22 in SSW 8.7 mph 12.7 mph 58 % 0.00 in
10:16 48.3 °F 33.8 °F 30.22 in SSE 9.2 mph 12.0 mph 57 % 0.00 in
10:21 49.0 °F 33.5 °F 30.22 in SW 8.0 mph 12.7 mph 55 % 0.00 in
10:26 49.4 °F 33.0 °F 30.22 in SSW 7.1 mph 12.7 mph 53 % 0.00 in
10:31 49.7 °F 33.2 °F 30.22 in SSW 8.1 mph 13.8 mph 53 % 0.00 in
10:36 50.0 °F 33.1 °F 30.22 in SW 7.0 mph 19.6 mph 52 % 0.00 in
10:42 50.4 °F 33.4 °F 30.22 in SW 8.8 mph 16.1 mph 52 % 0.00 in
10:47 50.7 °F 33.2 °F 30.21 in SSW 10.4 mph 15.0 mph 51 % 0.00 in
10:52 50.8 °F 32.3 °F 30.20 in SW 11.0 mph 18.4 mph 49 % 0.00 in
10:57 50.8 °F 31.8 °F 30.20 in SW 6.7 mph 17.3 mph 48 % 0.00 in
10:58 50.8 °F 31.8 °F 30.20 in WSW 8.6 mph 15.0 mph 48 % 0.00 in
11:03 50.9 °F 31.9 °F 30.20 in WSW 7.3 mph 13.0 mph 48 % 0.00 in
11:08 51.0 °F 32.0 °F 30.20 in SW 6.2 mph 12.0 mph 48 % 0.00 in
11:13 51.0 °F 31.5 °F 30.19 in WSW 7.7 mph 13.8 mph 47 % 0.00 in
11:18 51.0 °F 30.9 °F 30.19 in SSW 6.0 mph 17.3 mph 46 % 0.00 in
11:24 51.0 °F 31.5 °F 30.18 in SSW 6.6 mph 16.1 mph 47 % 0.00 in
11:26 51.0 °F 31.5 °F 30.18 in WSW 3.3 mph 8.1 mph 47 % 0.00 in
11:30 51.3 °F 31.7 °F 30.18 in SSW 10.5 mph 15.0 mph 47 % 0.00 in
11:36 51.3 °F 31.7 °F 30.18 in SW 7.0 mph 17.0 mph 47 % 0.00 in
11:41 51.4 °F 31.8 °F 30.17 in SW 6.0 mph 16.0 mph 47 % 0.00 in
11:46 51.5 °F 31.9 °F 30.17 in WSW 6.8 mph 12.7 mph 47 % 0.00 in
11:51 51.6 °F 32.0 °F 30.17 in SW 6.0 mph 15.0 mph 47 % 0.00 in
11:56 51.6 °F 32.5 °F 30.16 in SW 7.0 mph 13.0 mph 48 % 0.00 in
12:01 51.3 °F 31.7 °F 30.16 in WSW 7.5 mph 16.1 mph 47 % 0.00 in
12:06 51.2 °F 32.7 °F 30.16 in SSW 5.1 mph 9.2 mph 49 % 0.00 in
12:11 51.3 °F 32.8 °F 30.15 in South 5.3 mph 12.7 mph 49 % 0.00 in
12:16 51.5 °F 33.0 °F 30.15 in South 2.4 mph 9.2 mph 49 % 0.00 in
12:21 51.7 °F 33.1 °F 30.15 in SSW 7.2 mph 13.8 mph 49 % 0.00 in
12:26 52.0 °F 32.9 °F 30.15 in WSW 5.2 mph 8.1 mph 48 % 0.00 in
12:31 52.1 °F 33.5 °F 30.15 in SSW 2.9 mph 5.0 mph 49 % 0.00 in
12:36 52.3 °F 33.7 °F 30.14 in SSE 6.5 mph 10.4 mph 49 % 0.00 in
12:41 52.5 °F 33.4 °F 30.14 in SSW 4.7 mph 10.4 mph 48 % 0.00 in
12:46 52.6 °F 33.5 °F 30.14 in SW 4.4 mph 9.0 mph 48 % 0.00 in
12:51 52.7 °F 33.5 °F 30.13 in South 3.9 mph 8.1 mph 48 % 0.00 in
12:56 52.8 °F 33.1 °F 30.13 in South 5.5 mph 18.4 mph 47 % 0.00 in
13:01 53.0 °F 33.8 °F 30.13 in SSW 5.3 mph 9.2 mph 48 % 0.00 in
13:06 53.0 °F 33.8 °F 30.13 in SSW 5.7 mph 10.4 mph 48 % 0.00 in
13:11 53.0 °F 33.8 °F 30.12 in SSW 6.0 mph 8.1 mph 48 % 0.00 in
13:17 53.2 °F 34.5 °F 30.12 in South 3.4 mph 5.0 mph 49 % 0.00 in
13:22 53.4 °F 35.2 °F 30.12 in SW 5.2 mph 13.8 mph 50 % 0.00 in
13:27 53.5 °F 35.8 °F 30.12 in South 2.7 mph 10.4 mph 51 % 0.00 in
13:32 53.7 °F 36.5 °F 30.12 in WSW 4.7 mph 9.2 mph 52 % 0.00 in
13:37 53.8 °F 37.1 °F 30.11 in SSE 4.7 mph 8.1 mph 53 % 0.00 in
13:42 54.0 °F 38.2 °F 30.10 in South 2.1 mph 4.6 mph 55 % 0.00 in
13:47 54.2 °F 38.4 °F 30.10 in South 0.3 mph 3.5 mph 55 % 0.00 in
13:52 54.2 °F 39.3 °F 30.09 in SSW 6.7 mph 11.5 mph 57 % 0.00 in
13:57 54.0 °F 39.5 °F 30.09 in SSW 7.2 mph 15.0 mph 58 % 0.00 in
14:02 53.6 °F 39.6 °F 30.09 in SSW 7.3 mph 10.4 mph 59 % 0.00 in
14:07 53.3 °F 39.8 °F 30.09 in South 3.2 mph 10.4 mph 60 % 0.00 in
14:12 53.1 °F 40.4 °F 30.08 in South 5.4 mph 8.1 mph 62 % 0.00 in
14:17 53.0 °F 40.7 °F 30.08 in WSW 3.5 mph 8.1 mph 63 % 0.00 in
14:22 52.9 °F 41.0 °F 30.08 in South 4.5 mph 8.1 mph 64 % 0.00 in
14:27 52.7 °F 40.9 °F 30.08 in SSW 4.3 mph 6.9 mph 64 % 0.00 in
14:32 52.7 °F 41.3 °F 30.08 in SW 0.3 mph 6.9 mph 65 % 0.00 in
14:37 52.7 °F 41.3 °F 30.07 in SSW 2.1 mph 9.2 mph 65 % 0.00 in
14:43 52.7 °F 41.7 °F 30.08 in SSW 3.1 mph 9.2 mph 66 % 0.00 in
14:48 52.7 °F 41.7 °F 30.07 in SSW 4.5 mph 10.4 mph 66 % 0.00 in
14:53 52.6 °F 41.6 °F 30.07 in South 3.6 mph 6.9 mph 66 % 0.00 in
14:58 52.5 °F 41.9 °F 30.07 in SSW 6.2 mph 10.4 mph 67 % 0.00 in
15:03 52.4 °F 41.8 °F 30.07 in SSW 3.6 mph 5.8 mph 67 % 0.00 in
15:08 52.3 °F 41.7 °F 30.07 in South 7.8 mph 11.5 mph 67 % 0.00 in
15:13 52.1 °F 41.9 °F 30.06 in SSW 4.2 mph 8.1 mph 68 % 0.00 in
15:18 51.9 °F 41.7 °F 30.07 in South 5.6 mph 9.2 mph 68 % 0.00 in
15:23 51.6 °F 41.8 °F 30.06 in SSW 5.0 mph 8.1 mph 69 % 0.00 in
15:28 51.5 °F 41.7 °F 30.06 in South 6.7 mph 9.0 mph 69 % 0.00 in
15:33 51.1 °F 41.7 °F 30.06 in SSW 7.3 mph 13.8 mph 70 % 0.00 in
15:38 50.9 °F 41.5 °F 30.06 in South 4.8 mph 9.0 mph 70 % 0.00 in
15:43 50.7 °F 41.6 °F 30.05 in SSE 3.0 mph 6.9 mph 71 % 0.00 in
15:49 50.5 °F 41.4 °F 30.06 in SSW 4.4 mph 6.9 mph 71 % 0.00 in
15:54 50.4 °F 41.7 °F 30.06 in SSW 2.4 mph 5.8 mph 72 % 0.00 in
15:59 50.3 °F 41.6 °F 30.06 in SW 4.9 mph 15.0 mph 72 % 0.00 in
16:09 50.0 °F 41.7 °F 30.06 in South 7.6 mph 17.3 mph 73 % 0.00 in
16:14 49.9 °F 41.6 °F 30.06 in SW 7.7 mph 13.0 mph 73 % 0.00 in
16:19 49.7 °F 41.4 °F 30.06 in SSW 4.0 mph 8.0 mph 73 % 0.00 in
16:24 49.7 °F 41.7 °F 30.06 in South 3.7 mph 8.0 mph 74 % 0.00 in
16:29 49.5 °F 41.6 °F 30.05 in South 5.8 mph 10.4 mph 74 % 0.00 in
16:34 49.5 °F 41.9 °F 30.05 in SW 2.2 mph 4.6 mph 75 % 0.00 in
16:39 49.4 °F 41.8 °F 30.05 in South 4.7 mph 14.0 mph 75 % 0.00 in
16:40 49.3 °F 41.7 °F 30.05 in SSW 6.9 mph 13.8 mph 75 % 0.00 in
16:45 49.3 °F 41.7 °F 30.05 in SSW 5.7 mph 11.5 mph 75 % 0.00 in
16:50 49.2 °F 41.6 °F 30.04 in SW 5.2 mph 10.4 mph 75 % 0.00 in
16:55 49.2 °F 42.0 °F 30.04 in SSW 4.8 mph 9.2 mph 76 % 0.00 in
17:00 49.1 °F 41.9 °F 30.05 in SSW 2.8 mph 7.0 mph 76 % 0.00 in
17:05 49.1 °F 41.9 °F 30.04 in South 4.9 mph 8.0 mph 76 % 0.00 in
17:10 49.0 °F 41.8 °F 30.04 in South 4.6 mph 8.0 mph 76 % 0.00 in
17:15 48.9 °F 42.0 °F 30.04 in SSW 4.8 mph 10.0 mph 77 % 0.00 in
17:20 48.9 °F 42.0 °F 30.04 in South 4.7 mph 9.2 mph 77 % 0.00 in
17:25 48.8 °F 41.9 °F 30.04 in SSW 4.2 mph 9.2 mph 77 % 0.00 in
17:30 48.8 °F 41.9 °F 30.03 in South 4.8 mph 10.4 mph 77 % 0.00 in
17:35 48.7 °F 42.1 °F 30.04 in SSW 5.0 mph 9.0 mph 78 % 0.00 in
17:40 48.6 °F 42.0 °F 30.04 in South 4.9 mph 6.9 mph 78 % 0.00 in
17:45 48.5 °F 42.0 °F 30.04 in South 2.0 mph 12.0 mph 78 % 0.00 in
17:50 48.4 °F 41.9 °F 30.04 in SSW 3.0 mph 10.0 mph 78 % 0.00 in
17:55 48.3 °F 42.1 °F 30.04 in SSW 5.5 mph 8.0 mph 79 % 0.00 in
18:01 48.2 °F 42.0 °F 30.04 in SSW 5.3 mph 12.7 mph 79 % 0.00 in
18:06 48.2 °F 42.0 °F 30.04 in SSW 3.9 mph 10.4 mph 79 % 0.00 in
18:11 48.2 °F 42.0 °F 30.04 in South 5.1 mph 8.1 mph 79 % 0.00 in
18:16 48.3 °F 42.4 °F 30.04 in SSW 5.6 mph 9.2 mph 80 % 0.00 in
18:21 48.3 °F 42.4 °F 30.04 in South 7.8 mph 12.7 mph 80 % 0.00 in
18:26 48.5 °F 42.6 °F 30.05 in SSW 8.3 mph 11.5 mph 80 % 0.00 in
18:31 48.6 °F 42.4 °F 30.05 in SW 4.5 mph 9.2 mph 79 % 0.00 in
18:36 48.6 °F 42.4 °F 30.05 in South 3.8 mph 10.4 mph 79 % 0.00 in
18:41 48.7 °F 42.5 °F 30.05 in SSW 5.4 mph 12.7 mph 79 % 0.00 in
18:46 48.7 °F 42.5 °F 30.05 in SW 6.5 mph 11.5 mph 79 % 0.00 in
18:51 48.8 °F 42.6 °F 30.05 in SSW 6.9 mph 10.4 mph 79 % 0.00 in
18:56 48.9 °F 42.7 °F 30.05 in South 4.2 mph 8.1 mph 79 % 0.00 in
19:01 48.9 °F 42.7 °F 30.05 in SSW 7.4 mph 10.4 mph 79 % 0.00 in
19:06 48.9 °F 42.7 °F 30.05 in SSW 2.9 mph 6.9 mph 79 % 0.00 in
19:11 49.0 °F 42.8 °F 30.05 in SW 3.6 mph 6.9 mph 79 % 0.00 in
19:16 48.9 °F 42.7 °F 30.05 in SSW 5.2 mph 11.5 mph 79 % 0.00 in
19:21 49.0 °F 42.8 °F 30.05 in South 4.6 mph 8.1 mph 79 % 0.00 in
19:26 48.9 °F 42.7 °F 30.04 in SSE 3.3 mph 9.2 mph 79 % 0.00 in
19:32 48.9 °F 42.7 °F 30.04 in SSW 5.8 mph 13.0 mph 79 % 0.00 in
19:37 48.9 °F 42.7 °F 30.04 in SSW 5.6 mph 8.1 mph 79 % 0.00 in
19:42 49.0 °F 42.8 °F 30.04 in South 5.3 mph 11.5 mph 79 % 0.00 in
19:47 49.1 °F 42.9 °F 30.04 in South 4.8 mph 10.4 mph 79 % 0.00 in
19:52 49.1 °F 42.5 °F 30.04 in South 4.4 mph 10.4 mph 78 % 0.00 in
19:57 49.1 °F 42.5 °F 30.04 in South 6.9 mph 11.5 mph 78 % 0.00 in
20:02 49.2 °F 42.6 °F 30.04 in South 4.0 mph 8.1 mph 78 % 0.00 in
20:07 49.2 °F 42.6 °F 30.04 in SSE 6.7 mph 11.5 mph 78 % 0.00 in
20:12 49.2 °F 42.6 °F 30.04 in South 3.9 mph 5.8 mph 78 % 0.00 in
20:17 49.2 °F 42.6 °F 30.04 in SSW 4.5 mph 9.2 mph 78 % 0.00 in
20:22 49.2 °F 42.6 °F 30.03 in South 2.8 mph 7.0 mph 78 % 0.00 in
20:27 49.1 °F 42.5 °F 30.03 in South 3.1 mph 5.8 mph 78 % 0.00 in
20:32 49.0 °F 42.4 °F 30.03 in SSW 3.7 mph 10.4 mph 78 % 0.00 in
20:37 49.0 °F 42.4 °F 30.03 in SSW 5.0 mph 8.1 mph 78 % 0.00 in
20:42 49.0 °F 42.4 °F 30.03 in South 4.2 mph 9.2 mph 78 % 0.00 in
20:47 49.0 °F 42.4 °F 30.03 in South 6.3 mph 11.5 mph 78 % 0.00 in
20:52 48.9 °F 42.3 °F 30.03 in SSW 4.1 mph 11.5 mph 78 % 0.00 in
20:57 48.9 °F 42.3 °F 30.03 in SSW 4.2 mph 6.9 mph 78 % 0.00 in
21:02 48.9 °F 42.3 °F 30.02 in South 6.1 mph 6.9 mph 78 % 0.00 in
21:08 48.9 °F 42.0 °F 30.02 in South 6.0 mph 11.5 mph 77 % 0.00 in
21:13 48.9 °F 42.0 °F 30.02 in South 6.4 mph 9.2 mph 77 % 0.00 in
21:18 48.9 °F 42.0 °F 30.02 in SSW 4.5 mph 13.8 mph 77 % 0.00 in
21:23 49.0 °F 42.1 °F 30.01 in SSW 9.3 mph 19.6 mph 77 % 0.00 in
21:28 49.2 °F 42.3 °F 30.01 in SSW 6.0 mph 11.5 mph 77 % 0.00 in
21:33 49.4 °F 42.5 °F 30.01 in SSW 6.0 mph 10.4 mph 77 % 0.00 in
21:38 49.6 °F 42.3 °F 30.00 in SSW 6.7 mph 11.5 mph 76 % 0.00 in
21:43 49.6 °F 42.3 °F 30.00 in SSW 4.7 mph 8.1 mph 76 % 0.00 in
21:48 49.7 °F 42.4 °F 30.00 in SSW 7.4 mph 10.4 mph 76 % 0.00 in
21:53 49.8 °F 42.5 °F 30.00 in SSW 7.0 mph 11.5 mph 76 % 0.00 in
21:58 49.8 °F 42.2 °F 30.00 in SSW 7.0 mph 10.4 mph 75 % 0.00 in
22:03 49.9 °F 42.3 °F 29.99 in SSW 8.0 mph 11.5 mph 75 % 0.00 in
22:08 50.0 °F 42.4 °F 29.99 in SW 8.8 mph 15.0 mph 75 % 0.00 in
22:13 50.0 °F 42.4 °F 29.99 in South 7.2 mph 12.0 mph 75 % 0.00 in
22:18 50.0 °F 42.4 °F 29.99 in South 8.6 mph 16.0 mph 75 % 0.00 in
22:23 49.9 °F 42.3 °F 29.99 in SSW 6.6 mph 11.5 mph 75 % 0.00 in
22:28 49.8 °F 42.5 °F 29.99 in SSW 6.7 mph 10.0 mph 76 % 0.00 in
22:33 49.7 °F 42.4 °F 29.98 in SSW 7.5 mph 9.2 mph 76 % 0.00 in
22:38 49.6 °F 42.7 °F 29.99 in SSW 6.3 mph 11.0 mph 77 % 0.00 in
22:43 49.5 °F 42.6 °F 29.99 in SSW 7.6 mph 8.0 mph 77 % 0.00 in
22:49 49.4 °F 42.5 °F 29.99 in South 5.9 mph 10.4 mph 77 % 0.00 in
22:54 49.3 °F 42.7 °F 29.99 in SSW 5.4 mph 11.5 mph 78 % 0.00 in
22:59 49.3 °F 42.7 °F 29.99 in SE 4.8 mph 11.5 mph 78 % 0.00 in
23:04 49.2 °F 43.0 °F 29.99 in SW 5.4 mph 11.5 mph 79 % 0.00 in
23:09 49.2 °F 43.0 °F 29.99 in South 7.3 mph 11.5 mph 79 % 0.00 in
23:14 49.2 °F 43.0 °F 29.99 in SSW 6.1 mph 12.0 mph 79 % 0.00 in
23:19 49.3 °F 43.1 °F 29.99 in WSW 4.4 mph 8.0 mph 79 % 0.00 in
23:24 49.4 °F 43.5 °F 29.99 in SSW 4.9 mph 10.0 mph 80 % 0.00 in
23:29 49.4 °F 43.5 °F 29.99 in South 7.4 mph 11.5 mph 80 % 0.00 in
23:34 49.5 °F 43.6 °F 29.99 in South 4.4 mph 7.0 mph 80 % 0.00 in
23:39 49.5 °F 43.6 °F 29.98 in South 6.8 mph 14.0 mph 80 % 0.00 in
23:44 49.5 °F 43.6 °F 29.98 in SSW 5.6 mph 9.2 mph 80 % 0.00 in
23:49 49.6 °F 43.7 °F 29.98 in South 7.2 mph 11.5 mph 80 % 0.00 in
23:54 49.6 °F 43.7 °F 29.98 in SSW 6.3 mph 11.5 mph 80 % 0.00 in
23:59 49.6 °F 43.7 °F 29.97 in SSW 5.7 mph 9.2 mph 80 % 0.00 in
Crab Meadow Weather
Compliments of Weather Underground - 3 mb

Script developed by  Jim McMurry - jmcmurry@mwt.net Adapted for the template by  Wim van der Kuil - Leuven-Template.eu

Weather Terms: Wind Advisory - Sustained winds of 30 mph or greater or gusts to 45 mph or greater for a duration of one hour or longer.